Terminal Aerodrome Forecast
Issued by NWS Twin Cities, MN

Home | Current Version | Previous Version | Text Only | Print | Product List | Glossary Off
Versions: 1 2 3 4 5 6 7 8 9 10 11 12 13 14 15 16

000
FTUS43 KMPX 240739 AAA
TAFSTC
TAF AMD
KSTC 240739Z 2408/2506 23012KT P6SM SCT028 OVC035
     FM241000 26015G22KT P6SM -SN BKN027 OVC040
      TEMPO 2410/2413 4SM -SN OVC018
     FM241300 30017G26KT P6SM BKN025 BKN040
     FM241600 31018G28KT P6SM SCT030
     FM250000 31012KT P6SM FEW030 BKN150=

USA.gov is the U.S. government's official web portal to all federal, state and local government web resources and services.